createdAt,value
2019-02-11T00:02:27.018Z,16.93
2019-02-11T00:07:26.780Z,16.93
2019-02-11T00:12:26.919Z,16.95
2019-02-11T00:17:26.854Z,16.93
2019-02-11T00:22:26.889Z,16.92
2019-02-11T00:27:26.885Z,16.92
2019-02-11T00:32:26.964Z,16.92
2019-02-11T00:37:26.899Z,16.93
2019-02-11T00:42:26.884Z,16.93
2019-02-11T00:47:27.063Z,16.90
2019-02-11T00:52:26.864Z,16.90
2019-02-11T00:57:26.807Z,16.91
2019-02-11T01:02:26.836Z,16.87
2019-02-11T01:07:27.114Z,16.92
2019-02-11T01:12:26.902Z,16.91
2019-02-11T01:17:26.847Z,16.89
2019-02-11T01:22:26.908Z,16.89
2019-02-11T01:27:26.928Z,16.92
2019-02-11T01:32:26.863Z,16.89
2019-02-11T01:37:26.989Z,16.87
2019-02-11T01:42:26.996Z,16.91
2019-02-11T01:47:27.093Z,16.91
2019-02-11T01:52:27.109Z,16.89
2019-02-11T01:57:26.902Z,16.90
2019-02-11T02:02:26.842Z,16.88
2019-02-11T02:07:26.895Z,16.88
2019-02-11T02:12:27.039Z,16.86
2019-02-11T02:17:26.970Z,16.86
2019-02-11T02:22:26.889Z,16.88
2019-02-11T02:27:26.927Z,16.88
2019-02-11T02:32:26.986Z,16.89
2019-02-11T02:37:26.886Z,16.89
2019-02-11T02:42:26.938Z,16.86
2019-02-11T02:47:27.150Z,16.88
2019-02-11T02:52:26.878Z,16.87
2019-02-11T02:57:27.030Z,16.88
2019-02-11T03:02:26.970Z,16.89
2019-02-11T03:07:27.234Z,16.86
2019-02-11T03:12:27.157Z,16.87
2019-02-11T03:17:26.964Z,16.87
2019-02-11T03:22:27.214Z,16.88
2019-02-11T03:27:27.059Z,16.86
2019-02-11T03:32:26.990Z,16.86
2019-02-11T03:37:27.217Z,16.87
2019-02-11T03:42:26.921Z,16.87
2019-02-11T03:47:26.982Z,16.88
2019-02-11T03:52:27.138Z,16.86
2019-02-11T03:57:26.954Z,16.87
2019-02-11T04:02:26.987Z,16.87
2019-02-11T04:07:27.047Z,16.87
2019-02-11T04:12:27.054Z,16.87
2019-02-11T04:17:27.004Z,16.87
2019-02-11T04:22:27.028Z,16.89
2019-02-11T04:27:27.292Z,16.87
2019-02-11T04:32:26.967Z,16.88
2019-02-11T04:37:27.021Z,16.86
2019-02-11T04:42:27.040Z,16.86
2019-02-11T04:47:27.098Z,16.89
2019-02-11T04:52:27.035Z,16.93
2019-02-11T04:57:27.043Z,16.87
2019-02-11T05:02:27.215Z,16.87
2019-02-11T05:07:27.019Z,16.87
2019-02-11T05:12:27.138Z,16.86
2019-02-11T05:17:27.404Z,16.87
2019-02-11T05:22:27.444Z,16.87
2019-02-11T05:27:27.097Z,16.90
2019-02-11T05:32:27.092Z,16.80
2019-02-11T05:37:27.144Z,16.81
2019-02-11T05:42:27.051Z,16.72
2019-02-11T05:49:48.857Z,16.64
2019-02-11T05:54:48.846Z,16.74
2019-02-11T05:59:48.897Z,16.76
2019-02-11T06:04:48.839Z,16.77
2019-02-11T06:09:48.905Z,16.78
2019-02-11T06:14:48.905Z,16.76
2019-02-11T06:19:48.855Z,16.81
2019-02-11T06:24:48.886Z,16.83
2019-02-11T06:29:49.015Z,16.81
2019-02-11T06:34:48.942Z,16.81
2019-02-11T06:39:48.959Z,16.84
2019-02-11T06:44:48.927Z,16.82
2019-02-11T06:49:48.825Z,16.83
2019-02-11T06:54:48.875Z,16.84
2019-02-11T06:59:48.779Z,16.83
2019-02-11T07:04:48.809Z,16.83
2019-02-11T07:09:49.089Z,16.82
2019-02-11T07:14:48.809Z,16.81
2019-02-11T07:19:48.895Z,16.83
2019-02-11T07:24:48.863Z,16.82
2019-02-11T07:29:48.785Z,16.82
2019-02-11T07:34:48.898Z,16.83
2019-02-11T07:39:48.816Z,16.81
2019-02-11T07:44:48.842Z,16.84
2019-02-11T07:49:48.848Z,16.82
2019-02-11T07:54:49.085Z,16.84
2019-02-11T07:59:48.810Z,16.83
2019-02-11T08:04:48.793Z,16.83
2019-02-11T08:09:48.874Z,16.85
2019-02-11T08:14:48.809Z,16.84
2019-02-11T08:19:48.844Z,16.86
2019-02-11T08:24:49.096Z,16.83
2019-02-11T08:29:49.084Z,16.87
2019-02-11T08:34:48.796Z,16.82
2019-02-11T08:39:49.017Z,16.84
2019-02-11T08:44:48.831Z,16.83
2019-02-11T08:49:48.868Z,16.84
2019-02-11T08:54:49.023Z,16.84
2019-02-11T08:59:48.818Z,16.84
2019-02-11T09:04:48.915Z,16.84
2019-02-11T09:09:49.099Z,16.87
2019-02-11T09:14:48.827Z,16.87
2019-02-11T09:19:48.969Z,16.86
2019-02-11T09:24:48.825Z,16.87
2019-02-11T09:29:48.848Z,16.87
2019-02-11T09:34:48.867Z,16.89
2019-02-11T09:39:49.151Z,16.90
2019-02-11T09:44:48.833Z,16.88
2019-02-11T09:49:48.952Z,16.91
2019-02-11T09:54:48.981Z,16.92
2019-02-11T09:59:49.153Z,16.89
2019-02-11T10:04:49.035Z,16.88
2019-02-11T10:09:49.026Z,16.88
2019-02-11T10:14:48.899Z,16.88
2019-02-11T10:19:48.979Z,16.90
2019-02-11T10:24:48.805Z,16.88
2019-02-11T10:29:48.891Z,16.89
2019-02-11T10:34:48.814Z,16.90
2019-02-11T10:39:48.782Z,16.89
2019-02-11T10:44:48.835Z,16.88
2019-02-11T10:49:49.083Z,16.91
2019-02-11T10:54:48.808Z,16.91
2019-02-11T10:59:48.846Z,16.89
2019-02-11T11:04:48.884Z,16.88
2019-02-11T11:09:49.035Z,16.90
2019-02-11T11:14:48.810Z,16.92
2019-02-11T11:19:48.873Z,16.90
2019-02-11T11:24:48.819Z,16.91
2019-02-11T11:29:48.777Z,16.91
2019-02-11T11:34:48.803Z,16.91
2019-02-11T11:39:48.946Z,16.88
2019-02-11T11:44:48.800Z,16.89
2019-02-11T11:49:49.304Z,16.90
2019-02-11T11:54:48.812Z,16.91
2019-02-11T11:59:48.909Z,16.89
2019-02-11T12:04:49.213Z,16.90
2019-02-11T12:09:49.171Z,16.94
2019-02-11T12:14:48.926Z,16.93
2019-02-11T12:19:49.417Z,16.92
2019-02-11T12:24:49.262Z,16.90
2019-02-11T12:29:48.968Z,16.92
2019-02-11T12:34:48.917Z,16.93
2019-02-11T12:39:48.840Z,16.92
2019-02-11T12:44:48.887Z,16.91
2019-02-11T12:49:49.113Z,16.92
2019-02-11T12:54:48.938Z,16.93
2019-02-11T12:59:48.838Z,16.92
2019-02-11T13:04:49.008Z,16.89
2019-02-11T13:09:48.842Z,16.89
2019-02-11T13:14:49.039Z,16.88
2019-02-11T13:20:06.738Z,16.90
2019-02-11T13:24:48.850Z,16.91
2019-02-11T13:29:48.827Z,16.91
2019-02-11T13:34:48.943Z,16.90
2019-02-11T13:39:48.827Z,16.91
2019-02-11T13:44:48.898Z,16.91
2019-02-11T13:49:48.847Z,16.89
2019-02-11T13:54:48.873Z,16.89
2019-02-11T13:59:48.821Z,16.89
2019-02-11T14:04:48.883Z,16.90
2019-02-11T14:09:48.901Z,16.89
2019-02-11T14:14:48.948Z,16.89
2019-02-11T14:19:48.988Z,16.86
2019-02-11T14:24:48.979Z,16.87
2019-02-11T14:29:49.040Z,16.91
2019-02-11T14:34:48.882Z,16.88
2019-02-11T14:39:48.883Z,16.92
2019-02-11T14:44:48.958Z,16.91
2019-02-11T14:49:48.890Z,16.90
2019-02-11T14:54:48.919Z,16.91
2019-02-11T14:59:48.900Z,16.87
2019-02-11T15:04:48.847Z,16.88
2019-02-11T15:09:48.966Z,16.88
2019-02-11T15:14:48.904Z,16.87
2019-02-11T15:19:48.844Z,16.88
2019-02-11T15:24:48.988Z,16.86
2019-02-11T15:29:49.227Z,16.88
2019-02-11T15:34:48.931Z,16.88
2019-02-11T15:39:49.404Z,16.88
2019-02-11T15:44:48.841Z,16.87
2019-02-11T15:49:49.078Z,16.91
2019-02-11T15:54:49.001Z,16.91
2019-02-11T15:59:49.721Z,16.88
2019-02-11T16:04:49.189Z,16.87
2019-02-11T16:09:49.036Z,16.89
2019-02-11T16:14:48.983Z,16.87
2019-02-11T16:19:49.089Z,16.90
2019-02-11T16:24:49.006Z,16.90
2019-02-11T16:29:48.959Z,16.87
2019-02-11T16:34:48.964Z,16.89
2019-02-11T16:39:49.044Z,16.90
2019-02-11T16:44:49.108Z,16.86
2019-02-11T16:49:48.874Z,16.89
2019-02-11T16:54:48.899Z,16.89
2019-02-11T16:59:49.037Z,16.88
2019-02-11T17:04:49.051Z,16.82
2019-02-11T17:09:48.900Z,16.86
2019-02-11T17:14:48.934Z,16.86
2019-02-11T17:19:48.928Z,16.87
2019-02-11T17:24:48.958Z,16.88
2019-02-11T17:29:49.045Z,16.89
2019-02-11T17:34:48.871Z,16.87
2019-02-11T17:39:49.209Z,16.89
2019-02-11T17:44:48.936Z,16.86
2019-02-11T17:49:48.833Z,16.87
2019-02-11T17:54:48.908Z,16.87
2019-02-11T17:59:48.852Z,16.89
2019-02-11T18:04:48.921Z,16.88
2019-02-11T18:09:48.982Z,16.86
2019-02-11T18:14:48.919Z,16.83
2019-02-11T18:19:48.921Z,16.84
2019-02-11T18:24:48.929Z,16.84
2019-02-11T18:29:48.945Z,16.83
2019-02-11T18:34:48.933Z,16.83
2019-02-11T18:39:49.039Z,16.84
2019-02-11T18:44:48.893Z,16.83
2019-02-11T18:49:49.077Z,16.82
2019-02-11T18:54:49.054Z,16.86
2019-02-11T18:59:48.973Z,16.83
2019-02-11T19:04:49.147Z,16.83
2019-02-11T19:09:48.926Z,16.84
2019-02-11T19:14:49.100Z,16.81
2019-02-11T19:19:48.901Z,16.83
2019-02-11T19:24:48.954Z,16.82
2019-02-11T19:29:48.857Z,16.82
2019-02-11T19:34:48.910Z,16.82
2019-02-11T19:39:48.924Z,16.82
2019-02-11T19:44:48.871Z,16.81
2019-02-11T19:49:51.737Z,16.83
2019-02-11T19:54:49.313Z,16.79
2019-02-11T19:59:48.973Z,16.81
2019-02-11T20:04:48.992Z,16.81
2019-02-11T20:09:48.970Z,16.82
2019-02-11T20:14:48.947Z,16.81
2019-02-11T20:19:49.118Z,16.80
2019-02-11T20:24:48.974Z,16.82
2019-02-11T20:29:48.959Z,16.82
2019-02-11T20:34:48.886Z,16.83
2019-02-11T20:39:48.965Z,16.84
2019-02-11T20:44:48.874Z,16.81
2019-02-11T20:49:48.941Z,16.79
2019-02-11T20:54:49.131Z,16.83
2019-02-11T20:59:48.874Z,16.81
2019-02-11T21:04:49.098Z,16.79
2019-02-11T21:09:49.053Z,16.84
2019-02-11T21:14:48.874Z,16.80
2019-02-11T21:19:49.126Z,16.79
2019-02-11T21:24:48.842Z,16.81
2019-02-11T21:29:48.891Z,16.81
2019-02-11T21:34:48.909Z,16.80
2019-02-11T21:39:48.993Z,16.81
2019-02-11T21:44:48.902Z,16.80
2019-02-11T21:49:49.233Z,16.79
2019-02-11T21:54:48.848Z,16.80
2019-02-11T21:59:48.934Z,16.79
2019-02-11T22:04:49.035Z,16.81
2019-02-11T22:09:48.924Z,16.81
2019-02-11T22:14:48.959Z,16.79
2019-02-11T22:19:48.950Z,16.79
2019-02-11T22:24:49.178Z,16.81
2019-02-11T22:29:48.905Z,16.79
2019-02-11T22:34:48.942Z,16.79
2019-02-11T22:39:48.861Z,16.79
2019-02-11T22:44:48.880Z,16.79
2019-02-11T22:49:49.241Z,16.78
2019-02-11T22:54:48.876Z,16.79
2019-02-11T22:59:48.964Z,16.79
2019-02-11T23:04:49.053Z,16.81
2019-02-11T23:09:49.024Z,16.79
2019-02-11T23:14:49.110Z,16.78
2019-02-11T23:19:49.074Z,16.79
2019-02-11T23:24:48.884Z,16.79
2019-02-11T23:29:48.882Z,16.79
2019-02-11T23:34:48.945Z,16.79
2019-02-11T23:39:48.894Z,16.77
2019-02-11T23:44:49.219Z,16.77
2019-02-11T23:49:49.138Z,16.78
2019-02-11T23:54:48.929Z,16.79
2019-02-11T23:59:49.139Z,16.75
